Airport View

Enter AWOS ICAO identifier for current METAR.

ex. KFNL

KPUC 300353Z AUTO 01007KT 10SM CLR 04/M08 A3028 RMK AO2 SLP260 T00441083

30 Oct 2020 04:06

Frequency: 135.425

Phone: 435-637-2790

Other Area AWOS: K74V - KPVU - KHCR - K36U

TAF KPVU 292320Z 3000/3024 VRB05KT P6SM SKC